createdAt,value
2022-10-17T00:01:54.324Z,4.70
2022-10-17T00:04:20.761Z,3.63
2022-10-17T00:06:47.155Z,3.83
2022-10-17T00:09:13.734Z,4.18
2022-10-17T00:11:40.081Z,3.83
2022-10-17T00:14:06.398Z,3.72
2022-10-17T00:16:36.747Z,4.20
2022-10-17T00:19:06.850Z,3.70
2022-10-17T00:21:34.468Z,3.95
2022-10-17T00:24:03.906Z,3.55
2022-10-17T00:26:30.228Z,3.72
2022-10-17T00:28:56.789Z,3.92
2022-10-17T00:31:24.575Z,2.97
2022-10-17T00:33:52.889Z,3.38
2022-10-17T00:36:22.351Z,3.42
2022-10-17T00:38:52.019Z,3.20
2022-10-17T00:41:21.154Z,3.40
2022-10-17T00:44:00.883Z,4.40
2022-10-17T00:46:29.980Z,3.40
2022-10-17T00:48:57.470Z,3.10
2022-10-17T00:51:29.894Z,2.70
2022-10-17T00:53:56.478Z,3.60
2022-10-17T00:56:22.990Z,2.92
2022-10-17T00:58:49.565Z,4.07
2022-10-17T01:01:15.986Z,3.60
2022-10-17T01:03:42.432Z,3.30
2022-10-17T01:06:08.756Z,3.47
2022-10-17T01:08:35.173Z,3.53
2022-10-17T01:11:11.528Z,3.00
2022-10-17T01:13:53.121Z,3.50
2022-10-17T01:16:56.330Z,3.65
2022-10-17T01:19:31.381Z,3.30
2022-10-17T01:22:01.218Z,3.40
2022-10-17T01:24:42.957Z,2.90
2022-10-17T01:27:29.254Z,3.50
2022-10-17T01:30:22.218Z,3.63
2022-10-17T01:32:56.587Z,3.78
2022-10-17T01:35:30.662Z,3.58
2022-10-17T01:38:05.363Z,3.78
2022-10-17T01:40:37.598Z,3.60
2022-10-17T01:43:14.871Z,3.92
2022-10-17T01:45:49.898Z,3.40
2022-10-17T01:48:20.102Z,4.22
2022-10-17T01:50:56.807Z,3.80
2022-10-17T01:53:34.694Z,3.42
2022-10-17T01:56:02.689Z,3.55
2022-10-17T01:58:33.525Z,4.13
2022-10-17T02:01:05.523Z,3.90
2022-10-17T02:03:34.332Z,3.90
2022-10-17T02:06:00.812Z,3.72
2022-10-17T02:08:29.730Z,4.13
2022-10-17T02:11:00.101Z,3.72
2022-10-17T02:13:47.896Z,3.80
2022-10-17T02:16:27.307Z,3.50
2022-10-17T02:19:01.090Z,3.55
2022-10-17T02:21:51.274Z,3.67
2022-10-17T02:24:45.521Z,3.30
2022-10-17T02:27:14.708Z,3.22
2022-10-17T02:29:47.905Z,3.35
2022-10-17T02:32:48.006Z,3.10
2022-10-17T02:35:17.861Z,3.95
2022-10-17T02:37:45.887Z,3.60
2022-10-17T02:40:14.343Z,3.10
2022-10-17T02:42:43.909Z,3.33
2022-10-17T02:45:10.862Z,3.00
2022-10-17T02:47:50.107Z,3.40
2022-10-17T02:50:16.667Z,3.50
2022-10-17T02:52:50.982Z,4.10
2022-10-17T02:57:48.259Z,3.30
2022-10-17T03:00:15.837Z,4.05
2022-10-17T03:02:45.249Z,4.05
2022-10-17T03:05:16.351Z,4.10
2022-10-17T03:07:42.712Z,4.38
2022-10-17T03:10:09.313Z,3.85
2022-10-17T03:12:35.848Z,4.40
2022-10-17T03:15:02.415Z,5.22
2022-10-17T03:17:28.756Z,4.10
2022-10-17T03:19:55.077Z,5.00
2022-10-17T03:22:21.401Z,4.18
2022-10-17T03:24:47.731Z,5.05
2022-10-17T03:27:14.107Z,4.80
2022-10-17T03:29:40.451Z,4.95
2022-10-17T03:32:06.775Z,4.90
2022-10-17T03:34:33.175Z,4.80
2022-10-17T03:36:59.748Z,4.13
2022-10-17T03:39:26.075Z,4.50
2022-10-17T03:41:52.395Z,4.32
2022-10-17T03:44:18.735Z,3.80
2022-10-17T03:46:45.187Z,4.00
2022-10-17T03:49:11.811Z,3.22
2022-10-17T03:51:38.128Z,3.92
2022-10-17T03:54:04.495Z,4.25
2022-10-17T03:56:30.846Z,3.30
2022-10-17T03:58:57.184Z,4.13
2022-10-17T04:01:24.080Z,4.40
2022-10-17T04:03:52.121Z,4.05
2022-10-17T04:06:19.156Z,3.80
2022-10-17T04:08:45.547Z,4.32
2022-10-17T04:11:15.462Z,4.15
2022-10-17T04:13:41.974Z,3.67
2022-10-17T04:16:11.940Z,4.35
2022-10-17T04:18:38.280Z,3.40
2022-10-17T04:21:05.625Z,3.22
2022-10-17T04:23:32.139Z,3.92
2022-10-17T04:25:59.830Z,3.92
2022-10-17T04:28:27.498Z,4.15
2022-10-17T04:31:13.865Z,3.80
2022-10-17T04:33:40.815Z,4.15
2022-10-17T04:36:11.492Z,3.80
2022-10-17T04:38:37.805Z,4.63
2022-10-17T04:41:06.387Z,4.95
2022-10-17T04:43:34.854Z,4.88
2022-10-17T04:46:02.779Z,4.20
2022-10-17T04:48:29.786Z,4.47
2022-10-17T04:51:04.094Z,5.07
2022-10-17T04:53:37.397Z,5.57
2022-10-17T04:56:11.493Z,4.68
2022-10-17T04:58:38.362Z,4.68
2022-10-17T05:01:06.668Z,4.10
2022-10-17T05:03:33.647Z,4.55
2022-10-17T05:06:04.239Z,3.95
2022-10-17T05:08:30.542Z,3.80
2022-10-17T05:10:56.902Z,4.00
2022-10-17T05:13:23.337Z,4.88
2022-10-17T05:15:49.667Z,4.72
2022-10-17T05:18:16.138Z,3.47
2022-10-17T05:20:42.454Z,4.03
2022-10-17T05:23:08.768Z,4.10
2022-10-17T05:25:35.085Z,3.80
2022-10-17T05:28:01.435Z,4.32
2022-10-17T05:30:27.812Z,4.18
2022-10-17T05:32:54.866Z,4.10
2022-10-17T05:35:21.712Z,4.75
2022-10-17T05:37:48.269Z,3.80
2022-10-17T05:40:14.586Z,4.75
2022-10-17T05:42:45.849Z,4.38
2022-10-17T05:45:12.171Z,4.63
2022-10-17T05:47:38.492Z,4.07
2022-10-17T05:50:05.125Z,4.20
2022-10-17T05:52:31.800Z,5.00
2022-10-17T05:55:01.168Z,4.25
2022-10-17T05:57:27.658Z,5.32
2022-10-17T05:59:53.983Z,4.32
2022-10-17T06:02:20.351Z,5.25
2022-10-17T06:04:48.627Z,5.13
2022-10-17T06:07:15.978Z,4.90
2022-10-17T06:09:43.005Z,4.45
2022-10-17T06:12:09.576Z,5.88
2022-10-17T06:14:35.885Z,5.20
2022-10-17T06:17:02.943Z,6.30
2022-10-17T06:19:29.522Z,5.53
2022-10-17T06:21:55.831Z,6.07
2022-10-17T06:24:22.205Z,4.95
2022-10-17T06:26:49.795Z,5.95
2022-10-17T06:29:16.113Z,5.07
2022-10-17T06:31:42.456Z,4.60
2022-10-17T06:34:08.774Z,4.10
2022-10-17T06:36:35.103Z,4.03
2022-10-17T06:39:01.419Z,3.40
2022-10-17T06:41:27.791Z,4.22
2022-10-17T06:43:54.094Z,3.72
2022-10-17T06:46:20.999Z,3.65
2022-10-17T06:48:47.306Z,4.38
2022-10-17T06:51:13.702Z,4.07
2022-10-17T06:53:40.710Z,4.50
2022-10-17T06:56:08.598Z,3.83
2022-10-17T06:58:38.925Z,4.80
2022-10-17T07:01:10.821Z,4.38
2022-10-17T07:03:37.441Z,4.63
2022-10-17T07:06:04.378Z,5.70
2022-10-17T07:08:30.689Z,4.88
2022-10-17T07:10:57.362Z,4.75
2022-10-17T07:13:24.060Z,5.10
2022-10-17T07:15:50.483Z,4.72
2022-10-17T07:18:16.818Z,4.47
2022-10-17T07:20:43.161Z,5.13
2022-10-17T09:55:21.718Z,4.50
2022-10-17T09:58:14.870Z,4.50
2022-10-17T10:00:43.531Z,3.55
2022-10-17T10:03:12.604Z,3.85
2022-10-17T10:05:40.045Z,3.95
2022-10-17T10:08:14.429Z,4.32
2022-10-17T10:10:43.245Z,4.63
2022-10-17T10:13:15.772Z,4.10
2022-10-17T10:15:46.983Z,4.38
2022-10-17T10:18:25.644Z,3.90
2022-10-17T10:21:11.223Z,4.13
2022-10-17T10:23:40.105Z,4.15
2022-10-17T10:26:20.279Z,4.18
2022-10-17T10:28:54.241Z,4.00
2022-10-17T10:31:27.544Z,4.00
2022-10-17T10:33:56.872Z,3.58
2022-10-17T10:36:24.140Z,4.55
2022-10-17T10:38:57.134Z,4.18
2022-10-17T10:41:27.584Z,4.05
2022-10-17T10:43:54.614Z,3.70
2022-10-17T10:46:27.298Z,3.55
2022-10-17T10:48:59.625Z,3.75
2022-10-17T10:51:44.285Z,3.58
2022-10-17T10:54:28.667Z,3.20
2022-10-17T10:56:58.993Z,3.78
2022-10-17T10:59:41.158Z,3.53
2022-10-17T11:02:07.424Z,3.80
2022-10-17T11:04:45.056Z,3.40
2022-10-17T11:07:17.064Z,3.40
2022-10-17T11:09:54.491Z,3.47
2022-10-17T11:12:40.926Z,3.67
2022-10-17T11:15:28.015Z,3.42
2022-10-17T11:18:02.047Z,3.20
2022-10-17T11:20:42.611Z,3.78
2022-10-17T11:23:29.011Z,3.58
2022-10-17T11:25:57.349Z,3.15
2022-10-17T11:28:25.122Z,3.58
2022-10-17T11:30:56.567Z,3.10
2022-10-17T11:33:30.094Z,3.03
2022-10-17T11:36:02.041Z,3.53
2022-10-17T11:38:52.786Z,3.35
2022-10-17T11:41:43.011Z,3.35
2022-10-17T11:44:20.704Z,3.67
2022-10-17T11:46:52.583Z,2.83
2022-10-17T11:49:24.036Z,3.85
2022-10-17T11:52:08.142Z,3.08
2022-10-17T11:54:47.574Z,2.35
2022-10-17T11:57:37.207Z,3.03
2022-10-17T12:00:32.718Z,2.95
2022-10-17T12:03:28.305Z,3.78
2022-10-17T12:06:10.539Z,3.47
2022-10-17T12:08:47.265Z,3.17
2022-10-17T12:11:45.936Z,2.90
2022-10-17T12:14:36.721Z,3.30
2022-10-17T12:17:04.517Z,3.08
2022-10-17T12:19:35.641Z,3.10
2022-10-17T12:22:26.042Z,3.15
2022-10-17T12:24:58.127Z,3.40
2022-10-17T12:27:36.032Z,3.13
2022-10-17T12:30:24.745Z,3.35
2022-10-17T12:33:05.600Z,3.30
2022-10-17T12:35:35.962Z,3.00
2022-10-17T12:38:24.321Z,3.30
2022-10-17T12:40:55.748Z,2.92
2022-10-17T12:43:27.855Z,3.20
2022-10-17T12:46:00.738Z,3.30
2022-10-17T12:48:39.476Z,2.88
2022-10-17T12:51:34.264Z,3.00
2022-10-17T12:54:00.713Z,2.70
2022-10-17T12:56:47.196Z,3.33
2022-10-17T12:59:19.017Z,3.30
2022-10-17T13:01:47.829Z,3.33
2022-10-17T13:04:14.590Z,3.38
2022-10-17T13:06:46.775Z,3.30
2022-10-17T13:09:34.777Z,3.25
2022-10-17T13:12:04.097Z,3.08
2022-10-17T13:14:32.177Z,3.33
2022-10-17T13:17:00.250Z,2.70
2022-10-17T13:19:30.796Z,3.47
2022-10-17T13:22:05.316Z,2.88
2022-10-17T13:24:35.921Z,2.75
2022-10-17T13:27:03.153Z,2.85
2022-10-17T13:29:33.363Z,3.00
2022-10-17T13:32:01.609Z,3.42
2022-10-17T13:34:28.202Z,3.25
2022-10-17T13:37:00.581Z,3.05
2022-10-17T13:39:54.442Z,3.25
2022-10-17T13:42:28.640Z,2.85
2022-10-17T13:44:56.002Z,2.92
2022-10-17T13:47:27.930Z,2.58
2022-10-17T13:49:55.643Z,3.25
2022-10-17T13:52:25.707Z,2.80
2022-10-17T13:54:53.552Z,3.00
2022-10-17T13:57:32.312Z,3.20
2022-10-17T14:00:09.876Z,2.30
2022-10-17T14:02:38.430Z,2.35
2022-10-17T14:05:23.622Z,3.25
2022-10-17T14:10:41.112Z,2.85
2022-10-17T14:13:14.786Z,2.20
2022-10-17T14:15:44.882Z,2.28
2022-10-17T14:18:19.249Z,2.60
2022-10-17T14:23:37.617Z,2.63
2022-10-17T14:26:05.668Z,2.75
2022-10-17T14:28:32.109Z,3.15
2022-10-17T14:31:18.822Z,2.63
2022-10-17T14:33:50.851Z,2.47
2022-10-17T14:36:18.565Z,2.70
2022-10-17T14:38:50.295Z,2.70
2022-10-17T14:41:44.171Z,2.78
2022-10-17T14:44:19.435Z,2.40
2022-10-17T14:46:50.487Z,2.75
2022-10-17T14:49:24.565Z,2.92
2022-10-17T14:54:49.360Z,2.60
2022-10-17T14:57:34.351Z,2.53
2022-10-17T15:00:00.684Z,2.97
2022-10-17T15:02:29.175Z,2.60
2022-10-17T15:04:55.929Z,2.80
2022-10-17T15:07:23.775Z,2.88
2022-10-17T15:09:52.032Z,2.50
2022-10-17T15:12:20.967Z,2.45
2022-10-17T15:14:51.519Z,2.95
2022-10-17T15:17:20.831Z,2.53
2022-10-17T15:19:48.206Z,2.90
2022-10-17T15:22:43.386Z,3.00
2022-10-17T15:25:09.800Z,2.70
2022-10-17T15:27:36.160Z,2.55
2022-10-17T15:30:03.004Z,2.63
2022-10-17T15:32:29.334Z,2.47
2022-10-17T15:34:55.656Z,2.38
2022-10-17T15:37:23.908Z,2.63
2022-10-17T15:39:53.941Z,2.70
2022-10-17T15:42:27.615Z,3.42
2022-10-17T15:44:54.174Z,2.92
2022-10-17T15:47:30.824Z,3.50
2022-10-17T15:49:57.647Z,3.97
2022-10-17T15:52:24.440Z,3.60
2022-10-17T15:54:51.117Z,3.13
2022-10-17T15:57:26.538Z,3.13
2022-10-17T15:59:54.086Z,3.05
2022-10-17T16:02:21.819Z,3.42
2022-10-17T16:04:49.455Z,3.10
2022-10-17T16:07:16.076Z,3.35
2022-10-17T16:09:42.429Z,3.67
2022-10-17T16:12:18.014Z,3.25
2022-10-17T16:14:44.594Z,3.42
2022-10-17T16:17:14.417Z,4.40
2022-10-17T16:19:40.911Z,3.88
2022-10-17T16:22:12.981Z,4.03
2022-10-17T16:24:39.297Z,3.83
2022-10-17T16:27:05.633Z,3.40
2022-10-17T16:29:32.002Z,4.13
2022-10-17T16:31:58.356Z,3.30
2022-10-17T16:34:24.682Z,3.53
2022-10-17T16:36:51.106Z,3.70
2022-10-17T16:39:17.501Z,4.10
2022-10-17T16:41:43.952Z,4.50
2022-10-17T16:44:14.834Z,4.88
2022-10-17T16:46:41.305Z,4.35
2022-10-17T16:49:07.675Z,4.18
2022-10-17T16:51:35.740Z,10.55
2022-10-17T16:54:02.502Z,4.38
2022-10-17T16:56:32.671Z,4.78
2022-10-17T16:59:00.375Z,3.80
2022-10-17T17:01:29.272Z,3.88
2022-10-17T17:03:56.428Z,4.32
2022-10-17T17:06:26.389Z,8.20
2022-10-17T17:08:54.434Z,6.95
2022-10-17T17:11:23.147Z,5.65
2022-10-17T17:13:49.763Z,5.30
2022-10-17T17:16:22.444Z,5.53
2022-10-17T17:18:53.410Z,5.60
2022-10-17T17:21:19.943Z,5.05
2022-10-17T17:23:46.793Z,3.83
2022-10-17T17:26:18.927Z,3.50
2022-10-17T17:28:46.157Z,4.63
2022-10-17T17:31:15.411Z,4.47
2022-10-17T17:33:42.190Z,4.93
2022-10-17T17:36:10.781Z,4.70
2022-10-17T17:38:37.195Z,4.13
2022-10-17T17:41:03.998Z,4.10
2022-10-17T17:43:30.706Z,4.53
2022-10-17T17:45:57.104Z,3.80
2022-10-17T17:48:23.431Z,3.25
2022-10-17T17:50:49.893Z,3.67
2022-10-17T17:53:16.938Z,3.70
2022-10-17T17:55:43.406Z,4.40
2022-10-17T17:58:11.324Z,3.75
2022-10-17T18:00:38.454Z,3.58
2022-10-17T18:03:05.254Z,3.63
2022-10-17T18:05:31.966Z,3.33
2022-10-17T18:07:58.536Z,4.30
2022-10-17T18:10:25.136Z,4.28
2022-10-17T18:12:52.314Z,3.35
2022-10-17T18:15:18.765Z,4.32
2022-10-17T18:17:45.687Z,3.58
2022-10-17T18:20:12.749Z,3.50
2022-10-17T18:22:39.555Z,3.50
2022-10-17T18:25:06.778Z,3.58
2022-10-17T18:27:33.442Z,3.90
2022-10-17T18:33:41.431Z,3.88
2022-10-17T18:36:10.890Z,3.85
2022-10-17T18:38:37.498Z,4.97
2022-10-17T18:41:12.225Z,4.38
2022-10-17T18:43:40.224Z,4.38
2022-10-17T18:46:12.327Z,4.32
2022-10-17T18:48:42.753Z,4.60
2022-10-17T18:51:09.141Z,3.97
2022-10-17T18:53:39.414Z,4.15
2022-10-17T18:56:05.872Z,4.60
2022-10-17T18:58:32.239Z,4.35
2022-10-17T19:01:03.903Z,4.20
2022-10-17T19:03:30.965Z,4.15
2022-10-17T19:06:01.307Z,4.65
2022-10-17T19:08:27.660Z,3.95
2022-10-17T19:10:53.986Z,4.22
2022-10-17T19:13:21.599Z,3.90
2022-10-17T19:15:48.450Z,4.22
2022-10-17T19:18:14.768Z,4.13
2022-10-17T19:20:41.102Z,4.82
2022-10-17T19:23:07.410Z,3.88
2022-10-17T19:25:33.981Z,4.35
2022-10-17T19:28:00.467Z,4.20
2022-10-17T19:30:26.816Z,4.40
2022-10-17T19:32:53.172Z,4.80
2022-10-17T19:35:19.530Z,4.45
2022-10-17T19:37:45.925Z,4.22
2022-10-17T19:40:12.710Z,4.15
2022-10-17T19:42:39.153Z,4.22
2022-10-17T19:45:06.142Z,3.58
2022-10-17T19:47:32.488Z,3.95
2022-10-17T19:52:28.502Z,4.35
2022-10-17T19:54:55.135Z,4.60
2022-10-17T19:57:21.591Z,4.38
2022-10-17T19:59:49.362Z,4.07
2022-10-17T20:02:17.714Z,4.03
2022-10-17T20:04:54.385Z,4.25
2022-10-17T20:07:30.443Z,4.15
2022-10-17T20:09:56.791Z,3.80
2022-10-17T20:12:23.133Z,4.28
2022-10-17T20:14:49.445Z,3.72
2022-10-17T20:17:15.752Z,4.07
2022-10-17T20:19:42.207Z,3.88
2022-10-17T20:22:08.539Z,4.38
2022-10-17T20:24:34.860Z,4.75
2022-10-17T20:27:01.173Z,4.05
2022-10-17T20:29:28.101Z,3.60
2022-10-17T20:31:54.447Z,4.20
2022-10-17T20:34:20.784Z,3.90
2022-10-17T20:36:47.658Z,4.25
2022-10-17T20:39:15.809Z,4.13
2022-10-17T20:41:42.736Z,3.90
2022-10-17T20:44:09.418Z,3.92
2022-10-17T20:46:38.303Z,4.25
2022-10-17T20:49:08.833Z,4.32
2022-10-17T20:51:35.642Z,4.00
2022-10-17T20:54:02.747Z,4.32
2022-10-17T20:56:30.420Z,4.40
2022-10-17T20:58:58.932Z,4.00
2022-10-17T21:01:26.305Z,4.05
2022-10-17T21:03:52.710Z,4.22
2022-10-17T21:06:19.697Z,3.65
2022-10-17T21:08:47.157Z,4.28
2022-10-17T21:11:14.916Z,4.50
2022-10-17T21:13:41.554Z,3.85
2022-10-17T21:16:18.434Z,3.72
2022-10-17T21:18:44.983Z,3.88
2022-10-17T21:21:14.170Z,3.85
2022-10-17T21:23:41.974Z,3.67
2022-10-17T21:26:09.876Z,4.35
2022-10-17T21:28:37.097Z,4.00
2022-10-17T21:31:20.758Z,3.83
2022-10-17T21:33:49.755Z,3.88
2022-10-17T21:36:17.359Z,3.50
2022-10-17T21:38:45.062Z,4.32
2022-10-17T21:41:12.523Z,4.10
2022-10-17T21:43:38.898Z,4.10
2022-10-17T21:46:06.854Z,4.25
2022-10-17T21:48:33.885Z,4.68
2022-10-17T21:51:05.493Z,3.90
2022-10-17T21:53:32.650Z,4.53
2022-10-17T21:56:02.797Z,3.80
2022-10-17T21:58:29.467Z,4.13
2022-10-17T22:01:06.008Z,3.53
2022-10-17T22:03:34.278Z,3.50
2022-10-17T22:06:12.903Z,4.38
2022-10-17T22:08:47.515Z,3.70
2022-10-17T22:11:25.553Z,4.45
2022-10-17T22:13:59.504Z,4.05
2022-10-17T22:16:25.994Z,4.72
2022-10-17T22:18:52.391Z,4.18
2022-10-17T22:21:20.663Z,4.03
2022-10-17T22:23:54.729Z,3.90
2022-10-17T22:26:21.245Z,3.78
2022-10-17T22:28:47.698Z,4.38
2022-10-17T22:31:14.063Z,4.10
2022-10-17T22:33:40.667Z,3.42
2022-10-17T22:36:08.058Z,4.05
2022-10-17T22:38:35.193Z,4.45
2022-10-17T22:41:02.092Z,3.85
2022-10-17T22:43:28.437Z,4.40
2022-10-17T22:45:56.392Z,3.65
2022-10-17T22:48:23.508Z,3.80
2022-10-17T22:50:50.934Z,4.00
2022-10-17T22:53:26.230Z,4.03
2022-10-17T22:56:01.074Z,3.78
2022-10-17T22:58:28.734Z,3.92
2022-10-17T23:00:55.242Z,4.28
2022-10-17T23:03:22.751Z,4.10
2022-10-17T23:05:49.416Z,3.67
2022-10-17T23:08:17.787Z,4.10
2022-10-17T23:10:45.021Z,4.00
2022-10-17T23:13:11.549Z,3.70
2022-10-17T23:15:37.915Z,3.95
2022-10-17T23:18:04.784Z,4.10
2022-10-17T23:20:31.599Z,4.05
2022-10-17T23:22:58.395Z,4.45
2022-10-17T23:25:25.006Z,4.70
2022-10-17T23:27:51.709Z,4.20
2022-10-17T23:30:18.264Z,4.38
2022-10-17T23:32:44.601Z,4.00
2022-10-17T23:35:11.408Z,4.18
2022-10-17T23:37:38.012Z,4.65
2022-10-17T23:40:05.708Z,4.15
2022-10-17T23:42:32.128Z,4.20
2022-10-17T23:44:58.503Z,4.38
2022-10-17T23:47:24.935Z,4.68
2022-10-17T23:49:51.291Z,3.60
2022-10-17T23:52:17.659Z,4.43
2022-10-17T23:54:44.166Z,4.43
2022-10-17T23:57:10.498Z,4.13
2022-10-17T23:59:36.867Z,4.38
